To NAV CANADA Home Page Login to a new session Search on AWWS site Feedback and Comments Disclaimer Vers la page française équivalente Tips FAQ What's new on the site To the Forecasts and Observations / NOTAM section To "File a Flight Plan" website Publications and other links Update of the User's profile FIC Telephone Numbers My Weather Data Folder Route Weather Data Regional Weather Data Local Weather Data To the Forecasts and Observations / NOTAM section
Request Generated 10/17/2017 at 01:42:07 UTC . Weather information available at that time is displayed.

METAR/TAF

HAY RIVER/MERLYN CARTER AIRPORT/NT    

METAR CYHY 170100Z 33004KT 15SM BKN067 01/M02 A2956 RMK AC6 SLP022=
METAR CYHY 170000Z 31004KT 15SM FEW010 BKN057 OVC230 02/M02 A2956 RMK
SC1SC6CI1 SLP022=
METAR CYHY 162300Z 32007KT 15SM FEW020 SCT050 BKN230 03/M02 A2956 RMK
SC2SC1CI2 SLP022=

TAF CYHY 162338Z 1700/1712 32007KT P6SM FEW020 SCT050 BKN240 TEMPO
1700/1709 SCT020 BKN050
BECMG 1701/1703 VRB03KT
FM170900 02005KT P6SM BKN030 TEMPO 1709/1712 BKN015
RMK NXT FCST BY 170600Z=
Your time UTC time
Weather data provided by Environment Canada and NAV CANADA